createdAt,value
2022-09-27T00:04:54.590Z,94460.72
2022-09-27T00:07:26.654Z,94467.89
2022-09-27T00:09:57.424Z,94466.77
2022-09-27T00:12:26.316Z,94458.14
2022-09-27T00:14:55.173Z,94452.64
2022-09-27T00:17:32.888Z,94457.34
2022-09-27T00:20:10.115Z,94459.84
2022-09-27T00:22:53.599Z,94456.48
2022-09-27T00:28:01.670Z,94477.31
2022-09-27T00:28:40.641Z,94471.69
2022-09-27T00:30:59.021Z,94475.75
2022-09-27T00:33:17.384Z,94492.67
2022-09-27T00:35:54.277Z,94481.58
2022-09-27T00:38:29.307Z,94471.07
2022-09-27T00:41:21.073Z,94471.99
2022-09-27T00:44:02.902Z,94452.16
2022-09-27T00:46:52.799Z,94447.97
2022-09-27T00:49:40.446Z,94460.48
2022-09-27T00:52:16.928Z,94451.55
2022-09-27T00:54:53.315Z,94441.53
2022-09-27T00:57:24.835Z,94436.73
2022-09-27T01:02:56.812Z,94425.35
2022-09-27T01:05:29.454Z,94428.63
2022-09-27T01:11:02.382Z,94436.45
2022-09-27T01:13:36.961Z,94443.08
2022-09-27T01:16:28.154Z,94449.77
2022-09-27T01:19:07.864Z,94440.34
2022-09-27T01:21:45.543Z,94434.44
2022-09-27T01:24:26.618Z,94424.01
2022-09-27T01:27:18.375Z,94421.27
2022-09-27T01:29:57.425Z,94424.26
2022-09-27T01:32:51.735Z,94432.13
2022-09-27T01:35:29.050Z,94422.13
2022-09-27T01:38:33.983Z,94411.03
2022-09-27T01:41:14.651Z,94421.87
2022-09-27T01:43:51.989Z,94433.38
2022-09-27T01:46:26.296Z,94424.05
2022-09-27T01:49:00.079Z,94424.20
2022-09-27T01:51:35.388Z,94416.67
2022-09-27T01:54:10.042Z,94416.09
2022-09-27T01:56:42.373Z,94426.95
2022-09-27T01:59:25.491Z,94430.06
2022-09-27T02:01:59.067Z,94436.34
2022-09-27T02:04:38.438Z,94417.27
2022-09-27T02:07:17.056Z,94408.63
2022-09-27T02:09:51.685Z,94403.88
2022-09-27T02:12:24.968Z,94407.81
2022-09-27T02:15:09.191Z,94410.19
2022-09-27T02:17:48.556Z,94396.08
2022-09-27T02:20:38.351Z,94381.48
2022-09-27T02:23:35.227Z,94388.95
2022-09-27T02:26:06.856Z,94381.11
2022-09-27T02:28:47.629Z,94363.25
2022-09-27T02:31:19.325Z,94349.50
2022-09-27T02:34:06.292Z,94353.38
2022-09-27T02:36:35.377Z,94339.21
2022-09-27T02:39:06.939Z,94332.67
2022-09-27T02:41:37.427Z,94331.64
2022-09-27T02:44:09.473Z,94321.83
2022-09-27T02:46:47.217Z,94316.34
2022-09-27T02:49:33.910Z,94339.86
2022-09-27T02:52:40.215Z,94341.92
2022-09-27T02:55:21.118Z,94363.72
2022-09-27T02:57:58.936Z,94352.75
2022-09-27T03:00:30.568Z,94356.14
2022-09-27T03:03:24.000Z,94360.67
2022-09-27T03:06:01.872Z,94359.02
2022-09-27T03:08:36.602Z,94341.36
2022-09-27T03:11:05.490Z,94322.36
2022-09-27T03:13:55.473Z,94302.22
2022-09-27T03:19:14.345Z,94295.20
2022-09-27T03:21:42.989Z,94280.36
2022-09-27T03:24:11.733Z,94287.66
2022-09-27T03:26:40.417Z,94287.45
2022-09-27T03:29:09.109Z,94269.63
2022-09-27T03:31:37.989Z,94277.64
2022-09-27T03:34:10.775Z,94277.34
2022-09-27T03:36:41.483Z,94271.90
2022-09-27T03:39:10.262Z,94269.66
2022-09-27T03:41:41.846Z,94282.02
2022-09-27T03:44:16.434Z,94275.48
2022-09-27T03:46:45.276Z,94280.20
2022-09-27T03:49:15.138Z,94283.96
2022-09-27T03:51:47.033Z,94285.67
2022-09-27T03:54:18.906Z,94269.44
2022-09-27T03:56:50.969Z,94271.09
2022-09-27T03:59:19.671Z,94284.21
2022-09-27T04:01:51.795Z,94278.73
2022-09-27T04:04:26.345Z,94275.16
2022-09-27T04:07:02.296Z,94277.63
2022-09-27T04:09:44.416Z,94275.81
2022-09-27T04:12:11.590Z,94289.25
2022-09-27T04:14:42.241Z,94293.89
2022-09-27T04:17:21.953Z,94287.23
2022-09-27T04:20:08.008Z,94270.30
2022-09-27T04:22:48.009Z,94263.16
2022-09-27T04:25:19.445Z,94262.59
2022-09-27T04:28:02.247Z,94255.05
2022-09-27T04:30:42.135Z,94191.35
2022-09-27T04:33:12.654Z,94273.30
2022-09-27T04:36:13.043Z,94275.53
2022-09-27T04:38:44.213Z,94282.59
2022-09-27T04:41:17.011Z,94280.92
2022-09-27T04:43:58.740Z,94279.02
2022-09-27T04:46:37.095Z,94273.23
2022-09-27T04:49:10.340Z,94269.87
2022-09-27T04:51:46.308Z,94277.92
2022-09-27T04:54:17.850Z,94293.07
2022-09-27T04:57:01.844Z,94288.83
2022-09-27T04:59:48.633Z,94293.86
2022-09-27T05:06:58.933Z,94295.25
2022-09-27T05:08:54.154Z,94283.98
2022-09-27T05:11:30.011Z,94276.91
2022-09-27T05:14:00.387Z,94283.84
2022-09-27T05:16:32.021Z,94276.11
2022-09-27T05:19:09.194Z,94268.29
2022-09-27T05:21:49.137Z,94259.16
2022-09-27T05:24:18.988Z,94257.27
2022-09-27T05:26:49.019Z,94257.16
2022-09-27T05:29:23.525Z,94254.76
2022-09-27T05:31:55.511Z,94246.27
2022-09-27T05:34:25.709Z,94253.89
2022-09-27T05:36:57.337Z,94253.22
2022-09-27T05:39:33.322Z,94247.77
2022-09-27T05:42:05.830Z,94262.44
2022-09-27T05:44:39.264Z,94260.34
2022-09-27T05:47:18.904Z,94267.58
2022-09-27T05:49:49.632Z,94279.34
2022-09-27T05:52:28.545Z,94266.00
2022-09-27T05:54:58.309Z,94258.42
2022-09-27T05:57:33.400Z,94262.30
2022-09-27T06:00:07.947Z,94271.45
2022-09-27T06:02:46.800Z,94278.42
2022-09-27T06:05:17.164Z,94206.81
2022-09-27T06:07:49.358Z,94264.98
2022-09-27T06:10:38.188Z,94268.16
2022-09-27T06:13:12.015Z,94283.13
2022-09-27T06:15:46.739Z,94279.77
2022-09-27T06:18:20.939Z,94272.70
2022-09-27T06:20:52.385Z,94276.73
2022-09-27T06:26:16.336Z,94258.88
2022-09-27T06:28:46.884Z,94274.30
2022-09-27T06:31:16.753Z,94264.81
2022-09-27T06:33:57.358Z,94263.66
2022-09-27T06:36:25.207Z,94265.07
2022-09-27T06:38:57.736Z,94270.23
2022-09-27T06:41:26.725Z,94263.34
2022-09-27T06:43:57.227Z,94260.73
2022-09-27T06:46:27.773Z,94257.89
2022-09-27T06:49:05.696Z,94261.95
2022-09-27T06:51:31.853Z,94263.27
2022-09-27T06:54:02.494Z,94269.72
2022-09-27T06:56:39.950Z,94277.22
2022-09-27T06:59:30.323Z,94266.98
2022-09-27T07:02:05.334Z,94252.86
2022-09-27T07:04:43.944Z,94254.71
2022-09-27T07:07:16.275Z,94259.28
2022-09-27T07:09:52.280Z,94281.26
2022-09-27T07:12:23.026Z,94287.14
2022-09-27T07:14:54.261Z,94277.63
2022-09-27T07:17:23.712Z,94277.04
2022-09-27T07:19:55.424Z,94286.14
2022-09-27T07:22:32.143Z,94283.28
2022-09-27T07:25:01.143Z,94273.27
2022-09-27T07:27:38.888Z,94269.95
2022-09-27T07:30:09.167Z,94284.34
2022-09-27T07:32:38.680Z,94274.32
2022-09-27T07:35:10.183Z,94285.50
2022-09-27T07:37:41.632Z,94290.27
2022-09-27T07:40:33.387Z,94285.85
2022-09-27T07:43:10.740Z,94277.55
2022-09-27T07:45:41.943Z,94288.79
2022-09-27T07:48:16.544Z,94283.44
2022-09-27T07:50:47.174Z,94280.27
2022-09-27T07:53:22.372Z,94298.15
2022-09-27T07:56:10.525Z,94302.05
2022-09-27T07:58:29.890Z,94297.45
2022-09-27T08:01:06.109Z,94293.22
2022-09-27T08:03:44.302Z,94290.93
2022-09-27T08:06:16.265Z,94283.60
2022-09-27T08:08:50.764Z,94281.44
2022-09-27T08:11:29.371Z,94281.18
2022-09-27T08:14:17.390Z,94260.72
2022-09-27T08:16:42.899Z,94263.02
2022-09-27T08:19:13.354Z,94274.06
2022-09-27T08:21:47.995Z,94271.06
2022-09-27T08:24:21.494Z,94262.30
2022-09-27T08:26:56.228Z,94256.55
2022-09-27T08:29:34.186Z,94264.77
2022-09-27T08:32:08.098Z,94268.54
2022-09-27T08:37:44.109Z,94259.73
2022-09-27T08:40:20.810Z,94248.94
2022-09-27T08:43:13.272Z,94239.55
2022-09-27T08:46:12.994Z,94233.91
2022-09-27T08:48:46.092Z,94238.38
2022-09-27T08:51:16.918Z,94233.89
2022-09-27T08:53:54.504Z,94232.30
2022-09-27T08:56:32.024Z,94171.87
2022-09-27T09:02:36.728Z,94254.04
2022-09-27T09:05:41.273Z,94233.73
2022-09-27T09:08:20.687Z,94227.84
2022-09-27T09:11:16.311Z,94234.36
2022-09-27T09:13:59.938Z,94239.83
2022-09-27T09:16:38.855Z,94238.33
2022-09-27T09:19:18.462Z,94229.43
2022-09-27T09:21:52.587Z,94232.67
2022-09-27T09:24:33.225Z,94238.91
2022-09-27T09:27:21.633Z,94237.45
2022-09-27T09:36:49.335Z,94222.28
2022-09-27T09:39:37.740Z,94218.48
2022-09-27T09:42:19.023Z,94225.69
2022-09-27T09:45:27.072Z,94220.44
2022-09-27T09:48:20.302Z,94213.21
2022-09-27T09:51:01.271Z,94221.49
2022-09-27T09:53:50.109Z,94227.30
2022-09-27T09:56:41.546Z,94236.83
2022-09-27T09:59:21.771Z,94229.47
2022-09-27T10:01:56.459Z,94217.44
2022-09-27T10:07:34.760Z,94224.36
2022-09-27T10:10:15.462Z,94219.80
2022-09-27T10:12:56.699Z,94218.20
2022-09-27T10:19:52.238Z,94213.08
2022-09-27T10:22:39.057Z,94204.36
2022-09-27T10:25:10.239Z,94191.88
2022-09-27T10:37:39.998Z,94191.28
2022-09-27T10:43:37.081Z,94195.92
2022-09-27T10:49:38.891Z,94189.37
2022-09-27T10:52:25.409Z,94178.48
2022-09-27T10:55:00.158Z,94179.96
2022-09-27T10:57:31.666Z,94175.14
2022-09-27T11:00:09.153Z,94159.64
2022-09-27T11:02:50.143Z,94141.66
2022-09-27T11:05:37.071Z,94157.67
2022-09-27T11:09:23.838Z,94146.39
2022-09-27T11:11:45.462Z,94143.05
2022-09-27T11:14:26.122Z,94136.94
2022-09-27T11:17:29.504Z,94150.94
2022-09-27T11:20:31.266Z,94153.73
2022-09-27T11:29:40.802Z,94111.20
2022-09-27T11:32:49.153Z,94107.75
2022-09-27T11:35:59.426Z,94114.81
2022-09-27T11:38:52.765Z,94116.66
2022-09-27T11:41:42.396Z,94114.34
2022-09-27T11:44:33.444Z,94091.39
2022-09-27T11:47:18.981Z,94093.55
2022-09-27T12:00:23.341Z,94073.56
2022-09-27T12:03:23.929Z,94074.66
2022-09-27T12:06:07.090Z,94057.96
2022-09-27T12:08:42.790Z,94065.52
2022-09-27T12:11:22.240Z,94059.03
2022-09-27T12:14:11.377Z,94051.95
2022-09-27T12:16:48.555Z,94058.55
2022-09-27T12:19:32.196Z,94048.27
2022-09-27T12:22:06.697Z,94040.39
2022-09-27T12:24:54.137Z,94041.02
2022-09-27T12:27:38.290Z,94048.08
2022-09-27T12:30:07.976Z,94030.95
2022-09-27T12:32:47.541Z,94014.14
2022-09-27T12:35:30.273Z,93998.70
2022-09-27T12:41:27.981Z,93987.80
2022-09-27T12:43:58.086Z,93983.14
2022-09-27T12:46:35.480Z,93968.39
2022-09-27T12:49:12.915Z,93970.91
2022-09-27T12:51:56.264Z,93973.45
2022-09-27T12:54:31.445Z,93977.31
2022-09-27T12:57:05.709Z,93960.55
2022-09-27T12:59:39.917Z,93966.16
2022-09-27T13:02:29.633Z,93958.31
2022-09-27T13:05:19.269Z,93958.80
2022-09-27T13:07:56.719Z,93971.16
2022-09-27T13:10:32.802Z,93972.05
2022-09-27T13:13:04.750Z,93968.67
2022-09-27T13:15:39.925Z,93976.14
2022-09-27T13:18:28.510Z,93989.28
2022-09-27T13:20:57.411Z,93972.78
2022-09-27T13:23:31.837Z,93982.54
2022-09-27T13:26:06.522Z,93984.34
2022-09-27T13:28:40.860Z,93984.88
2022-09-27T13:31:16.713Z,93985.14
2022-09-27T13:33:51.729Z,93973.81
2022-09-27T13:36:32.487Z,93972.31
2022-09-27T13:39:15.554Z,93965.71
2022-09-27T13:41:50.533Z,93951.43
2022-09-27T13:44:36.490Z,93954.83
2022-09-27T13:47:27.621Z,93968.33
2022-09-27T13:50:05.251Z,93971.87
2022-09-27T13:52:38.531Z,94001.52
2022-09-27T13:55:43.753Z,93999.70
2022-09-27T13:58:42.457Z,93991.71
2022-09-27T14:01:21.638Z,93992.91
2022-09-27T14:03:57.058Z,93988.12
2022-09-27T14:06:31.898Z,93988.44
2022-09-27T14:09:06.473Z,93975.44
2022-09-27T14:11:44.767Z,93984.35
2022-09-27T14:14:20.578Z,93979.35
2022-09-27T14:16:49.402Z,93969.55
2022-09-27T14:19:24.010Z,93975.20
2022-09-27T14:21:53.639Z,93973.44
2022-09-27T14:24:25.744Z,93976.97
2022-09-27T14:27:17.516Z,93968.44
2022-09-27T14:29:53.548Z,93967.17
2022-09-27T14:32:25.223Z,93971.78
2022-09-27T14:35:36.710Z,93962.38
2022-09-27T14:38:33.125Z,93955.83
2022-09-27T14:40:49.278Z,93965.13
2022-09-27T14:43:20.584Z,93982.19
2022-09-27T14:45:53.162Z,93975.81
2022-09-27T14:48:33.862Z,93961.42
2022-09-27T14:51:09.490Z,93950.03
2022-09-27T14:53:40.980Z,93952.77
2022-09-27T14:56:12.797Z,93961.48
2022-09-27T14:58:48.609Z,93965.56
2022-09-27T15:01:21.402Z,93970.14
2022-09-27T15:03:50.756Z,93984.81
2022-09-27T15:06:20.571Z,93971.76
2022-09-27T15:08:51.840Z,93950.12
2022-09-27T15:11:21.255Z,93984.70
2022-09-27T15:14:14.726Z,94008.45
2022-09-27T15:16:44.223Z,94080.73
2022-09-27T15:19:28.013Z,94158.95
2022-09-27T15:22:00.181Z,94091.91
2022-09-27T15:24:43.471Z,94097.09
2022-09-27T15:27:22.060Z,94075.64
2022-09-27T15:29:53.038Z,94114.70
2022-09-27T15:32:25.005Z,94135.05
2022-09-27T15:34:54.932Z,94120.62
2022-09-27T15:37:38.551Z,94109.72
2022-09-27T15:40:43.250Z,94089.60
2022-09-27T15:43:21.205Z,94097.16
2022-09-27T15:45:54.690Z,94114.03
2022-09-27T15:48:25.039Z,94141.45
2022-09-27T15:50:53.674Z,94168.09
2022-09-27T15:53:44.083Z,94119.34
2022-09-27T15:56:14.991Z,94104.03
2022-09-27T15:58:44.746Z,94106.55
2022-09-27T16:01:19.891Z,94116.36
2022-09-27T16:03:49.057Z,94114.08
2022-09-27T16:06:18.896Z,94120.67
2022-09-27T16:08:47.474Z,94129.22
2022-09-27T16:11:17.931Z,94150.19
2022-09-27T16:13:49.198Z,94154.37
2022-09-27T16:16:20.646Z,94155.48
2022-09-27T16:18:50.005Z,94172.50
2022-09-27T16:21:18.718Z,94171.25
2022-09-27T16:23:56.632Z,94171.15
2022-09-27T16:26:26.036Z,94188.94
2022-09-27T16:28:54.681Z,94163.95
2022-09-27T16:31:23.412Z,94144.12
2022-09-27T16:33:52.199Z,94145.66
2022-09-27T16:36:20.818Z,94166.30
2022-09-27T16:38:53.740Z,94178.21
2022-09-27T16:41:23.311Z,94160.81
2022-09-27T16:43:53.977Z,94157.71
2022-09-27T16:46:25.679Z,94170.13
2022-09-27T16:48:55.891Z,94167.94
2022-09-27T16:51:42.805Z,94175.64
2022-09-27T16:54:13.162Z,94182.21
2022-09-27T16:56:42.171Z,94179.84
2022-09-27T16:59:14.619Z,94178.00
2022-09-27T17:01:43.264Z,94175.13
2022-09-27T17:04:12.537Z,94174.81
2022-09-27T17:06:41.445Z,94179.00
2022-09-27T17:09:16.304Z,94180.77
2022-09-27T17:11:44.967Z,94169.44
2022-09-27T17:14:16.183Z,94181.94
2022-09-27T17:16:45.839Z,94191.83
2022-09-27T17:19:16.573Z,94197.30
2022-09-27T17:21:46.282Z,94202.34
2022-09-27T17:24:15.759Z,94202.66
2022-09-27T17:26:46.396Z,94212.73
2022-09-27T17:29:15.782Z,94224.34
2022-09-27T17:31:55.677Z,94228.44
2022-09-27T17:34:24.358Z,94229.20
2022-09-27T17:36:53.041Z,94231.41
2022-09-27T17:39:23.605Z,94234.25
2022-09-27T17:41:57.970Z,94222.00
2022-09-27T17:44:31.354Z,94227.28
2022-09-27T17:47:20.715Z,94221.91
2022-09-27T17:50:07.181Z,94216.64
2022-09-27T17:52:37.558Z,94224.52
2022-09-27T17:55:09.608Z,94226.52
2022-09-27T17:57:38.725Z,94230.69
2022-09-27T18:00:10.041Z,94229.11
2022-09-27T18:02:40.467Z,94226.72
2022-09-27T18:05:09.889Z,94227.56
2022-09-27T18:07:41.450Z,94228.69
2022-09-27T18:10:17.414Z,94224.56
2022-09-27T18:12:58.797Z,94226.30
2022-09-27T18:15:29.348Z,94235.35
2022-09-27T18:18:03.810Z,94242.39
2022-09-27T18:20:44.876Z,94254.72
2022-09-27T18:23:16.835Z,94251.92
2022-09-27T18:25:58.164Z,94262.20
2022-09-27T18:28:31.779Z,94260.86
2022-09-27T18:31:06.881Z,94250.14
2022-09-27T18:33:40.801Z,94252.91
2022-09-27T18:36:13.584Z,94267.38
2022-09-27T18:38:44.567Z,94268.02
2022-09-27T18:41:16.244Z,94272.30
2022-09-27T18:43:49.550Z,94276.41
2022-09-27T18:46:38.619Z,94272.22
2022-09-27T18:48:53.369Z,94274.02
2022-09-27T18:51:29.440Z,94282.94
2022-09-27T18:54:03.608Z,94285.16
2022-09-27T18:56:34.417Z,94278.88
2022-09-27T18:59:03.181Z,94272.00
2022-09-27T19:01:35.040Z,94277.83
2022-09-27T19:04:07.393Z,94281.55
2022-09-27T19:06:36.962Z,94290.39
2022-09-27T19:09:06.762Z,94294.70
2022-09-27T19:11:36.368Z,94291.44
2022-09-27T19:14:05.356Z,94301.94
2022-09-27T19:16:34.460Z,94310.09
2022-09-27T19:19:03.135Z,94298.92
2022-09-27T19:21:31.756Z,94297.16
2022-09-27T19:24:00.541Z,94304.79
2022-09-27T19:26:29.690Z,94312.12
2022-09-27T19:28:59.113Z,94307.30
2022-09-27T19:34:25.849Z,94312.41
2022-09-27T19:36:55.325Z,94311.20
2022-09-27T19:39:24.088Z,94310.44
2022-09-27T19:41:52.853Z,94318.19
2022-09-27T19:44:21.528Z,94322.44
2022-09-27T19:46:50.233Z,94323.44
2022-09-27T19:49:19.089Z,94326.51
2022-09-27T19:53:10.064Z,94332.69
2022-09-27T19:55:38.707Z,94339.02
2022-09-27T19:58:10.331Z,94343.33
2022-09-27T20:00:40.524Z,94336.04
2022-09-27T20:03:10.868Z,94338.83
2022-09-27T20:05:39.542Z,94334.36
2022-09-27T20:08:09.456Z,94330.05
2022-09-27T20:10:38.122Z,94333.36
2022-09-27T20:13:08.162Z,94333.86
2022-09-27T20:15:36.830Z,94336.19
2022-09-27T20:18:09.429Z,94348.42
2022-09-27T20:20:41.475Z,94341.19
2022-09-27T20:23:14.060Z,94350.10
2022-09-27T20:25:54.354Z,94356.80
2022-09-27T20:28:22.986Z,94361.16
2022-09-27T20:31:02.781Z,94358.56
2022-09-27T20:33:41.863Z,94355.88
2022-09-27T20:36:15.669Z,94361.70
2022-09-27T20:38:49.884Z,94360.31
2022-09-27T20:41:25.837Z,94354.41
2022-09-27T20:44:01.253Z,94359.13
2022-09-27T20:46:30.720Z,94354.30
2022-09-27T20:49:03.134Z,94360.99
2022-09-27T20:51:33.450Z,94362.16
2022-09-27T20:54:03.237Z,94364.77
2022-09-27T20:56:36.753Z,94366.17
2022-09-27T20:59:14.733Z,94371.83
2022-09-27T21:01:48.848Z,94372.11
2022-09-27T21:04:19.198Z,94382.92
2022-09-27T21:06:48.051Z,94386.88
2022-09-27T21:09:23.288Z,94389.95
2022-09-27T21:11:53.924Z,94392.13
2022-09-27T21:14:22.635Z,94397.37
2022-09-27T21:16:51.467Z,94395.86
2022-09-27T21:19:21.725Z,94388.03
2022-09-27T21:21:54.572Z,94386.30
2022-09-27T21:24:23.270Z,94384.55
2022-09-27T21:26:53.339Z,94378.47
2022-09-27T21:29:24.144Z,94372.77
2022-09-27T21:31:52.566Z,94378.07
2022-09-27T21:34:21.195Z,94377.19
2022-09-27T21:36:50.385Z,94376.50
2022-09-27T21:39:19.120Z,94379.58
2022-09-27T21:41:47.782Z,94384.05
2022-09-27T21:44:16.533Z,94385.48
2022-09-27T21:46:46.255Z,94394.86
2022-09-27T21:49:14.875Z,94389.68
2022-09-27T21:51:44.567Z,94395.83
2022-09-27T21:54:15.205Z,94396.65
2022-09-27T21:56:44.745Z,94394.41
2022-09-27T21:59:15.965Z,94383.11
2022-09-27T22:01:47.428Z,94387.88
2022-09-27T22:04:17.526Z,94384.97
2022-09-27T22:06:46.407Z,94385.16
2022-09-27T22:09:18.070Z,94399.73
2022-09-27T22:11:50.671Z,94394.03
2022-09-27T22:14:21.401Z,94394.61
2022-09-27T22:16:52.931Z,94393.70
2022-09-27T22:19:21.655Z,94394.26
2022-09-27T22:21:50.344Z,94398.39
2022-09-27T22:24:19.954Z,94398.63
2022-09-27T22:26:53.911Z,94402.81
2022-09-27T22:29:22.627Z,94407.66
2022-09-27T22:31:51.415Z,94410.36
2022-09-27T22:34:22.092Z,94401.47
2022-09-27T22:36:51.162Z,94405.89
2022-09-27T22:39:24.369Z,94406.67
2022-09-27T22:41:53.068Z,94405.91
2022-09-27T22:44:24.263Z,94405.84
2022-09-27T22:46:53.126Z,94404.39
2022-09-27T22:49:21.955Z,94404.89
2022-09-27T22:51:50.624Z,94412.00
2022-09-27T22:54:22.202Z,94406.30
2022-09-27T22:56:52.400Z,94404.03
2022-09-27T22:59:21.084Z,94401.86
2022-09-27T23:01:52.763Z,94402.11
2022-09-27T23:04:26.892Z,94403.52
2022-09-27T23:06:55.631Z,94403.34
2022-09-27T23:09:25.805Z,94402.32
2022-09-27T23:11:55.900Z,94396.52
2022-09-27T23:14:26.124Z,94393.32
2022-09-27T23:16:54.865Z,94389.38
2022-09-27T23:19:23.503Z,94389.27
2022-09-27T23:21:54.195Z,94388.81
2022-09-27T23:24:23.663Z,94385.97
2022-09-27T23:26:53.946Z,94382.76
2022-09-27T23:29:22.689Z,94383.74
2022-09-27T23:31:51.456Z,94381.25
2022-09-27T23:34:21.797Z,94377.34
2022-09-27T23:36:51.204Z,94379.78
2022-09-27T23:39:19.904Z,94390.24
2022-09-27T23:41:48.588Z,94389.34
2022-09-27T23:44:17.326Z,94383.91
2022-09-27T23:46:46.264Z,94376.33
2022-09-27T23:49:18.108Z,94381.13
2022-09-27T23:51:48.494Z,94381.05
2022-09-27T23:54:17.079Z,94378.88
2022-09-27T23:56:45.745Z,94385.08
2022-09-27T23:59:14.848Z,94383.92
